sensor_id;sensor_type;location;lat;lon;timestamp;temperature;humidity
64032;DHT22;50278;47.796;11.968;2022-10-04T00:02:01;4.10;118.99
64032;DHT22;50278;47.796;11.968;2022-10-04T00:04:43;4.06;118.99
64032;DHT22;50278;47.796;11.968;2022-10-04T00:09:50;4.18;118.99
64032;DHT22;50278;47.796;11.968;2022-10-04T00:12:37;4.12;118.99
64032;DHT22;50278;47.796;11.968;2022-10-04T00:15:18;4.02;118.99
64032;DHT22;50278;47.796;11.968;2022-10-04T00:17:59;3.83;118.99
64032;DHT22;50278;47.796;11.968;2022-10-04T00:25:58;3.88;118.99
64032;DHT22;50278;47.796;11.968;2022-10-04T00:31:12;3.76;118.99
64032;DHT22;50278;47.796;11.968;2022-10-04T00:33:43;3.48;118.99
64032;DHT22;50278;47.796;11.968;2022-10-04T00:41:52;3.45;118.99
64032;DHT22;50278;47.796;11.968;2022-10-04T00:44:35;3.30;118.99
64032;DHT22;50278;47.796;11.968;2022-10-04T00:50:05;3.52;118.99
64032;DHT22;50278;47.796;11.968;2022-10-04T00:52:35;3.53;118.99
64032;DHT22;50278;47.796;11.968;2022-10-04T00:55:06;3.63;118.99
64032;DHT22;50278;47.796;11.968;2022-10-04T00:57:39;3.65;118.99
64032;DHT22;50278;47.796;11.968;2022-10-04T01:00:17;3.63;118.99
64032;DHT22;50278;47.796;11.968;2022-10-04T01:02:49;3.63;118.99
64032;DHT22;50278;47.796;11.968;2022-10-04T01:05:23;3.35;118.99
64032;DHT22;50278;47.796;11.968;2022-10-04T01:08:05;3.24;118.99
64032;DHT22;50278;47.796;11.968;2022-10-04T01:10:57;3.38;118.99
64032;DHT22;50278;47.796;11.968;2022-10-04T01:13:37;3.53;118.99
64032;DHT22;50278;47.796;11.968;2022-10-04T01:16:10;3.32;118.99
64032;DHT22;50278;47.796;11.968;2022-10-04T01:18:39;3.43;118.99
64032;DHT22;50278;47.796;11.968;2022-10-04T01:21:22;3.48;118.99
64032;DHT22;50278;47.796;11.968;2022-10-04T01:31:29;3.28;118.99
64032;DHT22;50278;47.796;11.968;2022-10-04T01:33:55;2.99;118.99
64032;DHT22;50278;47.796;11.968;2022-10-04T01:36:21;3.05;118.99
64032;DHT22;50278;47.796;11.968;2022-10-04T01:38:48;3.18;118.99
64032;DHT22;50278;47.796;11.968;2022-10-04T01:41:16;3.06;118.99
64032;DHT22;50278;47.796;11.968;2022-10-04T01:43:47;2.80;118.99
64032;DHT22;50278;47.796;11.968;2022-10-04T01:46:24;2.89;118.99
64032;DHT22;50278;47.796;11.968;2022-10-04T01:48:53;2.90;118.99
64032;DHT22;50278;47.796;11.968;2022-10-04T01:53:49;2.75;118.99
64032;DHT22;50278;47.796;11.968;2022-10-04T01:56:24;2.75;118.99
64032;DHT22;50278;47.796;11.968;2022-10-04T01:58:54;2.89;118.99
64032;DHT22;50278;47.796;11.968;2022-10-04T02:01:44;2.91;118.99
64032;DHT22;50278;47.796;11.968;2022-10-04T02:06:42;2.75;118.99
64032;DHT22;50278;47.796;11.968;2022-10-04T02:09:16;2.78;118.99
64032;DHT22;50278;47.796;11.968;2022-10-04T02:11:43;3.04;118.99
64032;DHT22;50278;47.796;11.968;2022-10-04T02:14:14;3.12;118.99
64032;DHT22;50278;47.796;11.968;2022-10-04T02:16:43;3.08;118.99
64032;DHT22;50278;47.796;11.968;2022-10-04T02:19:10;3.04;118.99
64032;DHT22;50278;47.796;11.968;2022-10-04T02:21:37;3.10;118.99
64032;DHT22;50278;47.796;11.968;2022-10-04T02:24:04;3.08;118.99
64032;DHT22;50278;47.796;11.968;2022-10-04T02:26:31;3.09;118.99
64032;DHT22;50278;47.796;11.968;2022-10-04T02:28:57;3.24;118.99
64032;DHT22;50278;47.796;11.968;2022-10-04T02:31:23;3.20;118.99
64032;DHT22;50278;47.796;11.968;2022-10-04T02:34:08;3.01;118.99
64032;DHT22;50278;47.796;11.968;2022-10-04T02:36:34;3.00;118.99
64032;DHT22;50278;47.796;11.968;2022-10-04T02:39:07;3.03;118.99
64032;DHT22;50278;47.796;11.968;2022-10-04T02:41:50;2.87;118.99
64032;DHT22;50278;47.796;11.968;2022-10-04T02:44:21;3.00;118.99
64032;DHT22;50278;47.796;11.968;2022-10-04T02:46:57;2.82;118.99
64032;DHT22;50278;47.796;11.968;2022-10-04T02:49:34;2.89;118.99
64032;DHT22;50278;47.796;11.968;2022-10-04T02:52:28;2.75;118.99
64032;DHT22;50278;47.796;11.968;2022-10-04T02:55:10;2.60;118.99
64032;DHT22;50278;47.796;11.968;2022-10-04T02:57:41;2.62;118.99
64032;DHT22;50278;47.796;11.968;2022-10-04T03:06:01;2.26;118.99
64032;DHT22;50278;47.796;11.968;2022-10-04T03:08:33;2.20;118.99
64032;DHT22;50278;47.796;11.968;2022-10-04T03:11:01;2.15;118.99
64032;DHT22;50278;47.796;11.968;2022-10-04T03:13:29;2.11;118.99
64032;DHT22;50278;47.796;11.968;2022-10-04T03:15:55;2.15;118.99
64032;DHT22;50278;47.796;11.968;2022-10-04T03:18:22;2.07;118.99
64032;DHT22;50278;47.796;11.968;2022-10-04T03:20:48;2.24;118.99
64032;DHT22;50278;47.796;11.968;2022-10-04T03:23:16;2.12;118.99
64032;DHT22;50278;47.796;11.968;2022-10-04T03:25:53;2.16;118.99
64032;DHT22;50278;47.796;11.968;2022-10-04T03:28:21;2.11;118.99
64032;DHT22;50278;47.796;11.968;2022-10-04T03:30:47;2.09;118.99
64032;DHT22;50278;47.796;11.968;2022-10-04T03:33:24;2.26;118.99
64032;DHT22;50278;47.796;11.968;2022-10-04T03:35:53;2.28;118.99
64032;DHT22;50278;47.796;11.968;2022-10-04T03:38:21;2.29;118.99
64032;DHT22;50278;47.796;11.968;2022-10-04T03:40:53;2.38;118.99
64032;DHT22;50278;47.796;11.968;2022-10-04T03:43:23;2.54;118.99
64032;DHT22;50278;47.796;11.968;2022-10-04T03:45:51;2.53;118.99
64032;DHT22;50278;47.796;11.968;2022-10-04T03:48:29;2.54;118.99
64032;DHT22;50278;47.796;11.968;2022-10-04T03:50:54;2.29;118.99
64032;DHT22;50278;47.796;11.968;2022-10-04T03:53:38;2.41;118.99
64032;DHT22;50278;47.796;11.968;2022-10-04T03:56:11;2.26;118.99
64032;DHT22;50278;47.796;11.968;2022-10-04T03:58:37;2.13;118.99
64032;DHT22;50278;47.796;11.968;2022-10-04T04:03:58;2.35;118.99
64032;DHT22;50278;47.796;11.968;2022-10-04T04:06:39;2.23;118.99
64032;DHT22;50278;47.796;11.968;2022-10-04T04:09:06;2.26;118.99
64032;DHT22;50278;47.796;11.968;2022-10-04T04:11:34;2.23;118.99
64032;DHT22;50278;47.796;11.968;2022-10-04T04:14:11;2.12;118.99
64032;DHT22;50278;47.796;11.968;2022-10-04T04:16:38;2.11;118.99
64032;DHT22;50278;47.796;11.968;2022-10-04T04:19:10;2.13;118.99
64032;DHT22;50278;47.796;11.968;2022-10-04T04:21:37;2.10;118.99
64032;DHT22;50278;47.796;11.968;2022-10-04T04:24:06;2.05;118.99
64032;DHT22;50278;47.796;11.968;2022-10-04T04:26:46;2.00;118.99
64032;DHT22;50278;47.796;11.968;2022-10-04T04:29:26;2.02;118.99
64032;DHT22;50278;47.796;11.968;2022-10-04T04:32:07;2.00;118.99
64032;DHT22;50278;47.796;11.968;2022-10-04T04:34:51;2.01;118.99
64032;DHT22;50278;47.796;11.968;2022-10-04T04:37:18;1.88;118.99
64032;DHT22;50278;47.796;11.968;2022-10-04T04:39:44;1.98;118.99
64032;DHT22;50278;47.796;11.968;2022-10-04T04:42:28;2.00;118.99
64032;DHT22;50278;47.796;11.968;2022-10-04T04:45:02;2.00;118.99
64032;DHT22;50278;47.796;11.968;2022-10-04T04:47:49;2.05;118.99
64032;DHT22;50278;47.796;11.968;2022-10-04T04:53:22;2.01;118.99
64032;DHT22;50278;47.796;11.968;2022-10-04T04:55:55;1.88;118.99
64032;DHT22;50278;47.796;11.968;2022-10-04T04:58:49;1.69;118.99
64032;DHT22;50278;47.796;11.968;2022-10-04T05:01:31;1.72;118.99
64032;DHT22;50278;47.796;11.968;2022-10-04T05:04:03;1.69;118.99
64032;DHT22;50278;47.796;11.968;2022-10-04T05:06:32;1.66;118.99
64032;DHT22;50278;47.796;11.968;2022-10-04T05:08:58;1.55;118.99
64032;DHT22;50278;47.796;11.968;2022-10-04T05:11:30;1.54;118.99
64032;DHT22;50278;47.796;11.968;2022-10-04T05:14:00;1.53;118.99
64032;DHT22;50278;47.796;11.968;2022-10-04T05:16:52;1.60;118.99
64032;DHT22;50278;47.796;11.968;2022-10-04T05:19:22;1.52;118.99
64032;DHT22;50278;47.796;11.968;2022-10-04T05:21:51;1.45;118.99
64032;DHT22;50278;47.796;11.968;2022-10-04T05:24:22;1.50;118.99
64032;DHT22;50278;47.796;11.968;2022-10-04T05:26:52;1.94;118.99
64032;DHT22;50278;47.796;11.968;2022-10-04T05:29:29;1.85;118.99
64032;DHT22;50278;47.796;11.968;2022-10-04T05:34:35;1.99;118.99
64032;DHT22;50278;47.796;11.968;2022-10-04T05:42:44;2.22;118.99
64032;DHT22;50278;47.796;11.968;2022-10-04T05:45:22;2.43;118.99
64032;DHT22;50278;47.796;11.968;2022-10-04T05:47:53;2.53;118.99
64032;DHT22;50278;47.796;11.968;2022-10-04T05:50:48;2.50;118.99
64032;DHT22;50278;47.796;11.968;2022-10-04T05:53:30;2.69;118.99
64032;DHT22;50278;47.796;11.968;2022-10-04T06:01:34;2.91;118.99
64032;DHT22;50278;47.796;11.968;2022-10-04T06:12:16;3.45;118.99
64032;DHT22;50278;47.796;11.968;2022-10-04T06:14:47;3.36;118.99
64032;DHT22;50278;47.796;11.968;2022-10-04T06:22:22;3.60;118.99
64032;DHT22;50278;47.796;11.968;2022-10-04T06:24:53;3.70;118.99
64032;DHT22;50278;47.796;11.968;2022-10-04T06:29:58;3.93;118.99
64032;DHT22;50278;47.796;11.968;2022-10-04T06:35:14;3.97;118.99
64032;DHT22;50278;47.796;11.968;2022-10-04T06:43:19;4.53;118.99
64032;DHT22;50278;47.796;11.968;2022-10-04T06:51:24;5.19;118.99
64032;DHT22;50278;47.796;11.968;2022-10-04T07:02:15;5.52;118.99
64032;DHT22;50278;47.796;11.968;2022-10-04T07:07:36;5.77;118.99
64032;DHT22;50278;47.796;11.968;2022-10-04T07:10:30;6.11;118.99
64032;DHT22;50278;47.796;11.968;2022-10-04T07:13:14;6.25;118.99
64032;DHT22;50278;47.796;11.968;2022-10-04T07:15:49;6.82;118.99
64032;DHT22;50278;47.796;11.968;2022-10-04T07:18:41;6.74;118.99
64032;DHT22;50278;47.796;11.968;2022-10-04T07:21:11;7.24;118.99
64032;DHT22;50278;47.796;11.968;2022-10-04T07:23:48;7.34;118.99
64032;DHT22;50278;47.796;11.968;2022-10-04T07:26:24;7.58;118.99
64032;DHT22;50278;47.796;11.968;2022-10-04T07:28:53;7.57;118.99
64032;DHT22;50278;47.796;11.968;2022-10-04T07:31:40;7.87;118.99
64032;DHT22;50278;47.796;11.968;2022-10-04T07:34:10;7.93;118.99
64032;DHT22;50278;47.796;11.968;2022-10-04T07:36:47;7.81;118.99
64032;DHT22;50278;47.796;11.968;2022-10-04T07:41:54;8.23;118.99
64032;DHT22;50278;47.796;11.968;2022-10-04T07:44:57;8.47;118.99
64032;DHT22;50278;47.796;11.968;2022-10-04T07:47:24;8.61;118.99
64032;DHT22;50278;47.796;11.968;2022-10-04T07:49:53;8.86;118.99
64032;DHT22;50278;47.796;11.968;2022-10-04T07:55:17;8.86;118.99
64032;DHT22;50278;47.796;11.968;2022-10-04T07:58:10;9.09;118.99
64032;DHT22;50278;47.796;11.968;2022-10-04T08:00:49;9.29;118.99
64032;DHT22;50278;47.796;11.968;2022-10-04T08:06:35;9.19;118.99
64032;DHT22;50278;47.796;11.968;2022-10-04T08:14:21;9.63;118.99
64032;DHT22;50278;47.796;11.968;2022-10-04T08:22:54;9.62;118.99
64032;DHT22;50278;47.796;11.968;2022-10-04T08:28:02;10.20;118.99
64032;DHT22;50278;47.796;11.968;2022-10-04T08:36:47;10.66;118.99
64032;DHT22;50278;47.796;11.968;2022-10-04T08:59:53;11.62;118.99
64032;DHT22;50278;47.796;11.968;2022-10-04T09:02:34;11.32;118.99
64032;DHT22;50278;47.796;11.968;2022-10-04T09:16:57;12.18;118.99
64032;DHT22;50278;47.796;11.968;2022-10-04T09:22:42;12.32;118.99
64032;DHT22;50278;47.796;11.968;2022-10-04T09:25:21;12.26;118.99
64032;DHT22;50278;47.796;11.968;2022-10-04T09:30:45;12.65;118.99
64032;DHT22;50278;47.796;11.968;2022-10-04T09:44:46;13.88;118.99
64032;DHT22;50278;47.796;11.968;2022-10-04T09:47:45;13.52;118.99
64032;DHT22;50278;47.796;11.968;2022-10-04T10:10:00;14.72;118.99
64032;DHT22;50278;47.796;11.968;2022-10-04T10:21:57;14.89;118.99
64032;DHT22;50278;47.796;11.968;2022-10-04T10:35:47;15.70;118.99
64032;DHT22;50278;47.796;11.968;2022-10-04T11:05:00;16.01;118.99
64032;DHT22;50278;47.796;11.968;2022-10-04T11:07:52;15.85;118.99
64032;DHT22;50278;47.796;11.968;2022-10-04T11:13:27;16.11;118.99
64032;DHT22;50278;47.796;11.968;2022-10-04T11:46:43;16.94;118.99
64032;DHT22;50278;47.796;11.968;2022-10-04T11:55:15;17.02;118.99
64032;DHT22;50278;47.796;11.968;2022-10-04T11:58:00;17.48;118.99
64032;DHT22;50278;47.796;11.968;2022-10-04T12:00:57;18.30;118.99
64032;DHT22;50278;47.796;11.968;2022-10-04T12:06:38;18.91;118.99
64032;DHT22;50278;47.796;11.968;2022-10-04T12:09:20;19.31;118.99
64032;DHT22;50278;47.796;11.968;2022-10-04T12:28:38;21.11;118.99
64032;DHT22;50278;47.796;11.968;2022-10-04T12:31:30;21.45;118.99
64032;DHT22;50278;47.796;11.968;2022-10-04T12:34:12;22.14;118.99
64032;DHT22;50278;47.796;11.968;2022-10-04T12:36:52;21.78;118.99
64032;DHT22;50278;47.796;11.968;2022-10-04T12:45:20;22.63;118.99
64032;DHT22;50278;47.796;11.968;2022-10-04T12:50:24;21.87;118.99
64032;DHT22;50278;47.796;11.968;2022-10-04T12:53:13;21.92;118.99
64032;DHT22;50278;47.796;11.968;2022-10-04T12:55:52;21.39;118.99
64032;DHT22;50278;47.796;11.968;2022-10-04T13:21:04;22.97;118.99
64032;DHT22;50278;47.796;11.968;2022-10-04T13:37:36;25.12;118.99
64032;DHT22;50278;47.796;11.968;2022-10-04T13:51:13;24.78;118.99
64032;DHT22;50278;47.796;11.968;2022-10-04T13:53:55;24.77;118.99
64032;DHT22;50278;47.796;11.968;2022-10-04T13:57:03;25.76;118.99
64032;DHT22;50278;47.796;11.968;2022-10-04T13:59:36;25.60;118.99
64032;DHT22;50278;47.796;11.968;2022-10-04T14:18:34;25.97;118.99
64032;DHT22;50278;47.796;11.968;2022-10-04T14:35:16;26.16;118.99
64032;DHT22;50278;47.796;11.968;2022-10-04T14:40:43;25.77;118.99
64032;DHT22;50278;47.796;11.968;2022-10-04T14:54:49;24.34;118.99
64032;DHT22;50278;47.796;11.968;2022-10-04T15:02:52;22.11;118.99
64032;DHT22;50278;47.796;11.968;2022-10-04T15:07:55;22.09;118.99
64032;DHT22;50278;47.796;11.968;2022-10-04T15:10:30;22.10;118.99
64032;DHT22;50278;47.796;11.968;2022-10-04T15:15:34;21.47;118.99
64032;DHT22;50278;47.796;11.968;2022-10-04T15:20:51;20.49;118.99
64032;DHT22;50278;47.796;11.968;2022-10-04T15:29:02;19.55;118.99
64032;DHT22;50278;47.796;11.968;2022-10-04T15:32:03;18.27;118.99
64032;DHT22;50278;47.796;11.968;2022-10-04T15:34:56;18.02;118.99
64032;DHT22;50278;47.796;11.968;2022-10-04T15:40:15;17.50;118.99
64032;DHT22;50278;47.796;11.968;2022-10-04T15:52:05;17.85;118.99
64032;DHT22;50278;47.796;11.968;2022-10-04T16:00:22;17.73;118.99
64032;DHT22;50278;47.796;11.968;2022-10-04T16:11:20;14.59;118.99
64032;DHT22;50278;47.796;11.968;2022-10-04T16:20:11;12.51;118.99
64032;DHT22;50278;47.796;11.968;2022-10-04T16:28:48;11.58;118.99
64032;DHT22;50278;47.796;11.968;2022-10-04T16:39:11;11.15;118.99
64032;DHT22;50278;47.796;11.968;2022-10-04T16:42:20;10.49;118.99
64032;DHT22;50278;47.796;11.968;2022-10-04T16:50:01;10.06;118.99
64032;DHT22;50278;47.796;11.968;2022-10-04T17:04:24;9.22;118.99
64032;DHT22;50278;47.796;11.968;2022-10-04T17:10:14;9.20;118.99
64032;DHT22;50278;47.796;11.968;2022-10-04T17:17:44;9.07;118.99
64032;DHT22;50278;47.796;11.968;2022-10-04T17:26:07;8.55;118.99
64032;DHT22;50278;47.796;11.968;2022-10-04T17:29:31;8.55;118.99
64032;DHT22;50278;47.796;11.968;2022-10-04T17:35:03;8.47;118.99
64032;DHT22;50278;47.796;11.968;2022-10-04T17:38:08;8.47;118.99
64032;DHT22;50278;47.796;11.968;2022-10-04T17:40:48;8.45;118.99
64032;DHT22;50278;47.796;11.968;2022-10-04T17:48:29;8.44;118.99
64032;DHT22;50278;47.796;11.968;2022-10-04T17:54:13;8.42;118.99
64032;DHT22;50278;47.796;11.968;2022-10-04T17:59:30;8.34;118.99
64032;DHT22;50278;47.796;11.968;2022-10-04T18:02:10;8.31;118.99
64032;DHT22;50278;47.796;11.968;2022-10-04T18:04:46;8.23;118.99
64032;DHT22;50278;47.796;11.968;2022-10-04T18:07:15;8.26;118.99
64032;DHT22;50278;47.796;11.968;2022-10-04T18:09:54;8.23;118.99
64032;DHT22;50278;47.796;11.968;2022-10-04T18:12:30;8.18;118.99
64032;DHT22;50278;47.796;11.968;2022-10-04T18:15:23;8.09;118.99
64032;DHT22;50278;47.796;11.968;2022-10-04T18:23:51;7.98;118.99
64032;DHT22;50278;47.796;11.968;2022-10-04T18:26:19;7.92;118.99
64032;DHT22;50278;47.796;11.968;2022-10-04T18:28:45;7.93;118.99
64032;DHT22;50278;47.796;11.968;2022-10-04T18:31:35;7.96;118.99
64032;DHT22;50278;47.796;11.968;2022-10-04T18:34:16;7.92;118.99
64032;DHT22;50278;47.796;11.968;2022-10-04T18:37:18;7.89;118.99
64032;DHT22;50278;47.796;11.968;2022-10-04T18:39:46;7.79;118.99
64032;DHT22;50278;47.796;11.968;2022-10-04T18:42:27;7.83;118.99
64032;DHT22;50278;47.796;11.968;2022-10-04T18:45:24;7.85;118.99
64032;DHT22;50278;47.796;11.968;2022-10-04T18:47:50;7.77;118.99
64032;DHT22;50278;47.796;11.968;2022-10-04T19:02:04;7.65;118.99
64032;DHT22;50278;47.796;11.968;2022-10-04T19:10:00;7.53;118.99
64032;DHT22;50278;47.796;11.968;2022-10-04T19:13:04;7.47;118.99
64032;DHT22;50278;47.796;11.968;2022-10-04T19:18:21;7.40;118.99
64032;DHT22;50278;47.796;11.968;2022-10-04T19:26:31;7.24;118.99
64032;DHT22;50278;47.796;11.968;2022-10-04T19:40:25;7.09;118.99
64032;DHT22;50278;47.796;11.968;2022-10-04T19:43:43;7.10;118.99
64032;DHT22;50278;47.796;11.968;2022-10-04T19:48:27;7.16;118.99
64032;DHT22;50278;47.796;11.968;2022-10-04T19:51:28;7.04;118.99
64032;DHT22;50278;47.796;11.968;2022-10-04T19:54:12;6.99;118.99
64032;DHT22;50278;47.796;11.968;2022-10-04T19:56:44;6.94;118.99
64032;DHT22;50278;47.796;11.968;2022-10-04T19:59:34;6.90;118.99
64032;DHT22;50278;47.796;11.968;2022-10-04T20:02:01;6.88;118.99
64032;DHT22;50278;47.796;11.968;2022-10-04T20:04:31;6.83;118.99
64032;DHT22;50278;47.796;11.968;2022-10-04T20:07:03;6.75;118.99
64032;DHT22;50278;47.796;11.968;2022-10-04T20:12:01;6.65;118.99
64032;DHT22;50278;47.796;11.968;2022-10-04T20:17:10;6.42;118.99
64032;DHT22;50278;47.796;11.968;2022-10-04T20:19:40;6.45;118.99
64032;DHT22;50278;47.796;11.968;2022-10-04T20:34:55;6.22;118.99
64032;DHT22;50278;47.796;11.968;2022-10-04T20:45:51;6.33;118.99
64032;DHT22;50278;47.796;11.968;2022-10-04T20:48:22;6.36;118.99
64032;DHT22;50278;47.796;11.968;2022-10-04T20:50:48;6.35;118.99
64032;DHT22;50278;47.796;11.968;2022-10-04T20:53:30;6.35;118.99
64032;DHT22;50278;47.796;11.968;2022-10-04T20:56:29;6.34;118.99
64032;DHT22;50278;47.796;11.968;2022-10-04T20:59:00;6.25;118.99
64032;DHT22;50278;47.796;11.968;2022-10-04T21:01:27;6.29;118.99
64032;DHT22;50278;47.796;11.968;2022-10-04T21:06:59;6.29;118.99
64032;DHT22;50278;47.796;11.968;2022-10-04T21:09:27;6.19;118.99
64032;DHT22;50278;47.796;11.968;2022-10-04T21:11:54;6.17;118.99
64032;DHT22;50278;47.796;11.968;2022-10-04T21:14:30;6.20;118.99
64032;DHT22;50278;47.796;11.968;2022-10-04T21:16:57;6.15;118.99
64032;DHT22;50278;47.796;11.968;2022-10-04T21:24:39;5.91;118.99
64032;DHT22;50278;47.796;11.968;2022-10-04T21:27:10;5.90;118.99
64032;DHT22;50278;47.796;11.968;2022-10-04T21:29:37;6.00;118.99
64032;DHT22;50278;47.796;11.968;2022-10-04T21:32:03;6.00;118.99
64032;DHT22;50278;47.796;11.968;2022-10-04T21:34:29;5.98;118.99
64032;DHT22;50278;47.796;11.968;2022-10-04T21:36:55;5.87;118.99
64032;DHT22;50278;47.796;11.968;2022-10-04T21:39:20;5.92;118.99
64032;DHT22;50278;47.796;11.968;2022-10-04T21:41:47;5.91;118.99
64032;DHT22;50278;47.796;11.968;2022-10-04T21:44:13;5.91;118.99
64032;DHT22;50278;47.796;11.968;2022-10-04T21:46:38;5.92;118.99
64032;DHT22;50278;47.796;11.968;2022-10-04T21:49:04;5.98;118.99
64032;DHT22;50278;47.796;11.968;2022-10-04T21:51:30;6.00;118.99
64032;DHT22;50278;47.796;11.968;2022-10-04T21:54:04;5.93;118.99
64032;DHT22;50278;47.796;11.968;2022-10-04T21:56:30;5.96;118.99
64032;DHT22;50278;47.796;11.968;2022-10-04T21:58:55;5.97;118.99
64032;DHT22;50278;47.796;11.968;2022-10-04T22:01:21;5.93;118.99
64032;DHT22;50278;47.796;11.968;2022-10-04T22:03:46;5.93;118.99
64032;DHT22;50278;47.796;11.968;2022-10-04T22:06:12;5.81;118.99
64032;DHT22;50278;47.796;11.968;2022-10-04T22:08:38;5.80;118.99
64032;DHT22;50278;47.796;11.968;2022-10-04T22:11:03;5.74;118.99
64032;DHT22;50278;47.796;11.968;2022-10-04T22:13:29;5.77;118.99
64032;DHT22;50278;47.796;11.968;2022-10-04T22:15:54;5.72;118.99
64032;DHT22;50278;47.796;11.968;2022-10-04T22:18:20;5.75;118.99
64032;DHT22;50278;47.796;11.968;2022-10-04T22:20:45;5.70;118.99
64032;DHT22;50278;47.796;11.968;2022-10-04T22:23:18;5.68;118.99
64032;DHT22;50278;47.796;11.968;2022-10-04T22:25:44;5.72;118.99
64032;DHT22;50278;47.796;11.968;2022-10-04T22:28:29;5.65;118.99
64032;DHT22;50278;47.796;11.968;2022-10-04T22:30:55;5.70;118.99
64032;DHT22;50278;47.796;11.968;2022-10-04T22:33:32;5.71;118.99
64032;DHT22;50278;47.796;11.968;2022-10-04T22:36:25;5.61;118.99
64032;DHT22;50278;47.796;11.968;2022-10-04T22:39:08;5.71;118.99
64032;DHT22;50278;47.796;11.968;2022-10-04T22:41:37;5.77;118.99
64032;DHT22;50278;47.796;11.968;2022-10-04T22:44:14;5.69;118.99
64032;DHT22;50278;47.796;11.968;2022-10-04T22:46:42;5.68;118.99
64032;DHT22;50278;47.796;11.968;2022-10-04T22:49:10;5.81;118.99
64032;DHT22;50278;47.796;11.968;2022-10-04T22:51:39;5.77;118.99
64032;DHT22;50278;47.796;11.968;2022-10-04T22:54:14;5.68;118.99
64032;DHT22;50278;47.796;11.968;2022-10-04T22:56:40;5.52;118.99
64032;DHT22;50278;47.796;11.968;2022-10-04T22:59:09;5.53;118.99
64032;DHT22;50278;47.796;11.968;2022-10-04T23:01:35;5.42;118.99
64032;DHT22;50278;47.796;11.968;2022-10-04T23:04:00;5.33;118.99
64032;DHT22;50278;47.796;11.968;2022-10-04T23:06:26;5.25;118.99
64032;DHT22;50278;47.796;11.968;2022-10-04T23:08:51;5.26;118.99
64032;DHT22;50278;47.796;11.968;2022-10-04T23:11:17;5.25;118.99
64032;DHT22;50278;47.796;11.968;2022-10-04T23:13:42;5.17;118.99
64032;DHT22;50278;47.796;11.968;2022-10-04T23:16:15;5.20;118.99
64032;DHT22;50278;47.796;11.968;2022-10-04T23:18:41;5.19;118.99
64032;DHT22;50278;47.796;11.968;2022-10-04T23:21:19;5.24;118.99
64032;DHT22;50278;47.796;11.968;2022-10-04T23:23:46;5.32;118.99
64032;DHT22;50278;47.796;11.968;2022-10-04T23:26:15;5.30;118.99
64032;DHT22;50278;47.796;11.968;2022-10-04T23:28:43;5.28;118.99
64032;DHT22;50278;47.796;11.968;2022-10-04T23:31:22;5.27;118.99
64032;DHT22;50278;47.796;11.968;2022-10-04T23:33:49;5.39;118.99
64032;DHT22;50278;47.796;11.968;2022-10-04T23:36:16;5.33;118.99
64032;DHT22;50278;47.796;11.968;2022-10-04T23:38:48;5.35;118.99
64032;DHT22;50278;47.796;11.968;2022-10-04T23:41:14;5.41;118.99
64032;DHT22;50278;47.796;11.968;2022-10-04T23:43:40;5.38;118.99
64032;DHT22;50278;47.796;11.968;2022-10-04T23:46:18;5.50;118.99
64032;DHT22;50278;47.796;11.968;2022-10-04T23:48:44;5.53;118.99
64032;DHT22;50278;47.796;11.968;2022-10-04T23:51:12;5.43;118.99
64032;DHT22;50278;47.796;11.968;2022-10-04T23:53:39;5.42;118.99
64032;DHT22;50278;47.796;11.968;2022-10-04T23:56:28;5.35;118.99
64032;DHT22;50278;47.796;11.968;2022-10-04T23:58:56;5.35;118.99
